sensor_id;sensor_type;location;lat;lon;timestamp;P1;durP1;ratioP1;P2;durP2;ratioP2
78877;SDS011;68257;43.514;1.498;2024-03-08T00:01:40;7.83;;;1.50;;
78877;SDS011;68257;43.514;1.498;2024-03-08T00:04:06;5.43;;;1.40;;
78877;SDS011;68257;43.514;1.498;2024-03-08T00:06:32;5.72;;;1.27;;
78877;SDS011;68257;43.514;1.498;2024-03-08T00:08:57;6.63;;;1.17;;
78877;SDS011;68257;43.514;1.498;2024-03-08T00:11:23;6.03;;;1.50;;
78877;SDS011;68257;43.514;1.498;2024-03-08T00:13:51;7.13;;;1.37;;
78877;SDS011;68257;43.514;1.498;2024-03-08T00:16:17;5.53;;;1.30;;
78877;SDS011;68257;43.514;1.498;2024-03-08T00:18:44;6.35;;;1.42;;
78877;SDS011;68257;43.514;1.498;2024-03-08T00:21:10;7.25;;;1.33;;
78877;SDS011;68257;43.514;1.498;2024-03-08T00:23:37;6.17;;;1.10;;
78877;SDS011;68257;43.514;1.498;2024-03-08T00:26:02;4.28;;;1.20;;
78877;SDS011;68257;43.514;1.498;2024-03-08T00:28:29;5.15;;;1.20;;
78877;SDS011;68257;43.514;1.498;2024-03-08T00:30:55;6.13;;;1.23;;
78877;SDS011;68257;43.514;1.498;2024-03-08T00:33:21;7.00;;;1.20;;
78877;SDS011;68257;43.514;1.498;2024-03-08T00:35:46;6.87;;;1.10;;
78877;SDS011;68257;43.514;1.498;2024-03-08T00:38:12;5.80;;;1.10;;
78877;SDS011;68257;43.514;1.498;2024-03-08T00:40:38;8.27;;;1.73;;
78877;SDS011;68257;43.514;1.498;2024-03-08T00:43:05;9.98;;;1.38;;
78877;SDS011;68257;43.514;1.498;2024-03-08T00:45:31;8.03;;;1.20;;
78877;SDS011;68257;43.514;1.498;2024-03-08T00:47:56;4.77;;;1.13;;
78877;SDS011;68257;43.514;1.498;2024-03-08T00:50:21;4.50;;;0.90;;
78877;SDS011;68257;43.514;1.498;2024-03-08T00:52:47;6.97;;;1.38;;
78877;SDS011;68257;43.514;1.498;2024-03-08T00:55:12;4.73;;;1.83;;
78877;SDS011;68257;43.514;1.498;2024-03-08T00:57:38;7.03;;;1.40;;
78877;SDS011;68257;43.514;1.498;2024-03-08T01:00:04;3.73;;;0.93;;
78877;SDS011;68257;43.514;1.498;2024-03-08T01:02:34;3.53;;;1.10;;
78877;SDS011;68257;43.514;1.498;2024-03-08T01:05:00;5.03;;;1.10;;
78877;SDS011;68257;43.514;1.498;2024-03-08T01:17:38;4.18;;;1.05;;
78877;SDS011;68257;43.514;1.498;2024-03-08T01:20:04;7.85;;;1.50;;
78877;SDS011;68257;43.514;1.498;2024-03-08T01:22:30;5.63;;;1.17;;
78877;SDS011;68257;43.514;1.498;2024-03-08T01:24:57;5.40;;;1.10;;
78877;SDS011;68257;43.514;1.498;2024-03-08T01:27:23;5.17;;;1.20;;
78877;SDS011;68257;43.514;1.498;2024-03-08T01:29:49;5.50;;;1.30;;
78877;SDS011;68257;43.514;1.498;2024-03-08T01:32:15;4.90;;;1.05;;
78877;SDS011;68257;43.514;1.498;2024-03-08T01:34:41;5.00;;;1.10;;
78877;SDS011;68257;43.514;1.498;2024-03-08T01:37:07;9.90;;;1.50;;
78877;SDS011;68257;43.514;1.498;2024-03-08T01:39:32;5.63;;;1.30;;
78877;SDS011;68257;43.514;1.498;2024-03-08T01:41:59;7.90;;;1.20;;
78877;SDS011;68257;43.514;1.498;2024-03-08T01:44:25;4.75;;;1.17;;
78877;SDS011;68257;43.514;1.498;2024-03-08T01:46:51;7.77;;;1.10;;
78877;SDS011;68257;43.514;1.498;2024-03-08T01:49:17;6.13;;;1.02;;
78877;SDS011;68257;43.514;1.498;2024-03-08T01:51:45;4.97;;;1.20;;
78877;SDS011;68257;43.514;1.498;2024-03-08T01:54:11;6.32;;;1.10;;
78877;SDS011;68257;43.514;1.498;2024-03-08T01:56:37;7.00;;;1.10;;
78877;SDS011;68257;43.514;1.498;2024-03-08T01:59:04;7.97;;;1.20;;
78877;SDS011;68257;43.514;1.498;2024-03-08T02:01:30;5.63;;;1.13;;
78877;SDS011;68257;43.514;1.498;2024-03-08T02:03:56;4.13;;;1.00;;
78877;SDS011;68257;43.514;1.498;2024-03-08T02:06:22;6.37;;;1.10;;
78877;SDS011;68257;43.514;1.498;2024-03-08T02:08:47;5.73;;;1.37;;
78877;SDS011;68257;43.514;1.498;2024-03-08T02:11:13;3.90;;;0.90;;
78877;SDS011;68257;43.514;1.498;2024-03-08T02:13:38;4.97;;;1.33;;
78877;SDS011;68257;43.514;1.498;2024-03-08T02:16:04;6.20;;;1.10;;
78877;SDS011;68257;43.514;1.498;2024-03-08T02:18:33;5.22;;;1.02;;
78877;SDS011;68257;43.514;1.498;2024-03-08T02:21:00;5.93;;;1.45;;
78877;SDS011;68257;43.514;1.498;2024-03-08T02:23:26;5.68;;;1.00;;
78877;SDS011;68257;43.514;1.498;2024-03-08T02:25:52;7.07;;;1.33;;
78877;SDS011;68257;43.514;1.498;2024-03-08T02:28:19;4.17;;;0.90;;
78877;SDS011;68257;43.514;1.498;2024-03-08T02:30:45;7.05;;;1.10;;
78877;SDS011;68257;43.514;1.498;2024-03-08T02:33:17;3.70;;;0.90;;
78877;SDS011;68257;43.514;1.498;2024-03-08T02:35:43;7.07;;;0.90;;
78877;SDS011;68257;43.514;1.498;2024-03-08T02:38:15;6.05;;;1.05;;
78877;SDS011;68257;43.514;1.498;2024-03-08T02:40:43;6.90;;;1.15;;
78877;SDS011;68257;43.514;1.498;2024-03-08T02:43:13;5.57;;;1.10;;
78877;SDS011;68257;43.514;1.498;2024-03-08T02:45:39;5.80;;;1.30;;
78877;SDS011;68257;43.514;1.498;2024-03-08T02:48:06;3.80;;;1.00;;
78877;SDS011;68257;43.514;1.498;2024-03-08T02:50:32;3.97;;;1.08;;
78877;SDS011;68257;43.514;1.498;2024-03-08T02:52:59;4.03;;;0.95;;
78877;SDS011;68257;43.514;1.498;2024-03-08T02:55:25;5.30;;;1.50;;
78877;SDS011;68257;43.514;1.498;2024-03-08T02:57:51;5.07;;;0.73;;
78877;SDS011;68257;43.514;1.498;2024-03-08T03:00:17;5.50;;;0.80;;
78877;SDS011;68257;43.514;1.498;2024-03-08T03:02:44;4.13;;;1.10;;
78877;SDS011;68257;43.514;1.498;2024-03-08T03:05:10;5.50;;;0.95;;
78877;SDS011;68257;43.514;1.498;2024-03-08T03:07:36;4.20;;;1.10;;
78877;SDS011;68257;43.514;1.498;2024-03-08T03:10:02;5.22;;;0.90;;
78877;SDS011;68257;43.514;1.498;2024-03-08T03:12:28;6.93;;;1.02;;
78877;SDS011;68257;43.514;1.498;2024-03-08T03:14:54;5.97;;;1.08;;
78877;SDS011;68257;43.514;1.498;2024-03-08T03:17:21;4.57;;;0.80;;
78877;SDS011;68257;43.514;1.498;2024-03-08T03:19:47;7.93;;;0.97;;
78877;SDS011;68257;43.514;1.498;2024-03-08T03:22:13;7.32;;;1.10;;
78877;SDS011;68257;43.514;1.498;2024-03-08T03:24:38;5.93;;;1.00;;
78877;SDS011;68257;43.514;1.498;2024-03-08T03:27:06;5.47;;;1.20;;
78877;SDS011;68257;43.514;1.498;2024-03-08T03:29:42;4.22;;;0.98;;
78877;SDS011;68257;43.514;1.498;2024-03-08T03:32:12;8.13;;;0.93;;
78877;SDS011;68257;43.514;1.498;2024-03-08T03:34:38;5.35;;;0.90;;
78877;SDS011;68257;43.514;1.498;2024-03-08T03:37:04;6.03;;;1.17;;
78877;SDS011;68257;43.514;1.498;2024-03-08T03:39:30;7.65;;;1.00;;
78877;SDS011;68257;43.514;1.498;2024-03-08T03:41:59;6.55;;;1.02;;
78877;SDS011;68257;43.514;1.498;2024-03-08T03:44:27;4.22;;;1.00;;
78877;SDS011;68257;43.514;1.498;2024-03-08T03:46:53;4.93;;;0.98;;
78877;SDS011;68257;43.514;1.498;2024-03-08T03:49:18;6.53;;;0.90;;
78877;SDS011;68257;43.514;1.498;2024-03-08T03:51:44;6.77;;;0.87;;
78877;SDS011;68257;43.514;1.498;2024-03-08T03:54:09;6.93;;;0.80;;
78877;SDS011;68257;43.514;1.498;2024-03-08T03:56:35;5.70;;;0.93;;
78877;SDS011;68257;43.514;1.498;2024-03-08T03:59:00;6.28;;;0.73;;
78877;SDS011;68257;43.514;1.498;2024-03-08T04:01:26;5.97;;;0.90;;
78877;SDS011;68257;43.514;1.498;2024-03-08T04:03:51;5.83;;;1.00;;
78877;SDS011;68257;43.514;1.498;2024-03-08T04:06:17;4.23;;;0.70;;
78877;SDS011;68257;43.514;1.498;2024-03-08T04:08:42;4.63;;;0.80;;
78877;SDS011;68257;43.514;1.498;2024-03-08T04:11:07;4.32;;;0.93;;
78877;SDS011;68257;43.514;1.498;2024-03-08T04:13:36;6.38;;;0.82;;
78877;SDS011;68257;43.514;1.498;2024-03-08T04:16:01;5.30;;;0.80;;
78877;SDS011;68257;43.514;1.498;2024-03-08T04:18:27;4.73;;;0.80;;
78877;SDS011;68257;43.514;1.498;2024-03-08T04:20:53;5.28;;;0.80;;
78877;SDS011;68257;43.514;1.498;2024-03-08T04:23:18;4.43;;;0.77;;
78877;SDS011;68257;43.514;1.498;2024-03-08T04:25:44;6.80;;;0.87;;
78877;SDS011;68257;43.514;1.498;2024-03-08T04:28:10;3.53;;;0.77;;
78877;SDS011;68257;43.514;1.498;2024-03-08T04:30:38;5.07;;;0.65;;
78877;SDS011;68257;43.514;1.498;2024-03-08T04:33:06;3.73;;;0.90;;
78877;SDS011;68257;43.514;1.498;2024-03-08T04:35:33;3.83;;;1.00;;
78877;SDS011;68257;43.514;1.498;2024-03-08T04:37:59;3.08;;;0.60;;
78877;SDS011;68257;43.514;1.498;2024-03-08T04:40:24;4.57;;;0.70;;
78877;SDS011;68257;43.514;1.498;2024-03-08T04:42:50;6.93;;;1.07;;
78877;SDS011;68257;43.514;1.498;2024-03-08T04:45:16;4.88;;;1.13;;
78877;SDS011;68257;43.514;1.498;2024-03-08T04:47:42;5.97;;;1.00;;
78877;SDS011;68257;43.514;1.498;2024-03-08T04:50:07;3.97;;;0.90;;
78877;SDS011;68257;43.514;1.498;2024-03-08T04:52:34;11.43;;;1.20;;
78877;SDS011;68257;43.514;1.498;2024-03-08T04:55:00;7.90;;;1.02;;
78877;SDS011;68257;43.514;1.498;2024-03-08T04:57:27;5.55;;;0.93;;
78877;SDS011;68257;43.514;1.498;2024-03-08T04:59:52;3.67;;;0.70;;
78877;SDS011;68257;43.514;1.498;2024-03-08T05:02:18;7.23;;;0.93;;
78877;SDS011;68257;43.514;1.498;2024-03-08T05:04:43;8.13;;;1.00;;
78877;SDS011;68257;43.514;1.498;2024-03-08T05:07:09;4.63;;;0.93;;
78877;SDS011;68257;43.514;1.498;2024-03-08T05:09:34;5.07;;;0.93;;
78877;SDS011;68257;43.514;1.498;2024-03-08T05:12:01;6.50;;;1.20;;
78877;SDS011;68257;43.514;1.498;2024-03-08T05:14:26;5.95;;;1.10;;
78877;SDS011;68257;43.514;1.498;2024-03-08T05:16:52;7.95;;;1.13;;
78877;SDS011;68257;43.514;1.498;2024-03-08T05:19:18;6.37;;;1.23;;
78877;SDS011;68257;43.514;1.498;2024-03-08T05:21:45;4.05;;;0.80;;
78877;SDS011;68257;43.514;1.498;2024-03-08T05:24:13;5.30;;;0.87;;
78877;SDS011;68257;43.514;1.498;2024-03-08T05:26:40;6.50;;;1.15;;
78877;SDS011;68257;43.514;1.498;2024-03-08T05:29:06;17.00;;;15.23;;
78877;SDS011;68257;43.514;1.498;2024-03-08T05:31:47;7.47;;;1.05;;
78877;SDS011;68257;43.514;1.498;2024-03-08T05:34:14;8.38;;;5.00;;
78877;SDS011;68257;43.514;1.498;2024-03-08T05:36:40;7.40;;;3.80;;
78877;SDS011;68257;43.514;1.498;2024-03-08T05:39:08;6.47;;;1.80;;
78877;SDS011;68257;43.514;1.498;2024-03-08T05:41:36;7.95;;;1.70;;
78877;SDS011;68257;43.514;1.498;2024-03-08T05:44:01;6.27;;;1.13;;
78877;SDS011;68257;43.514;1.498;2024-03-08T05:46:27;7.82;;;1.33;;
78877;SDS011;68257;43.514;1.498;2024-03-08T05:48:53;5.30;;;1.00;;
78877;SDS011;68257;43.514;1.498;2024-03-08T05:51:19;7.50;;;1.48;;
78877;SDS011;68257;43.514;1.498;2024-03-08T05:53:46;5.43;;;1.10;;
78877;SDS011;68257;43.514;1.498;2024-03-08T05:56:12;7.80;;;1.40;;
78877;SDS011;68257;43.514;1.498;2024-03-08T05:58:37;9.97;;;1.83;;
78877;SDS011;68257;43.514;1.498;2024-03-08T06:01:02;6.40;;;1.00;;
78877;SDS011;68257;43.514;1.498;2024-03-08T06:03:32;9.48;;;1.60;;
78877;SDS011;68257;43.514;1.498;2024-03-08T06:05:58;6.15;;;0.88;;
78877;SDS011;68257;43.514;1.498;2024-03-08T06:08:24;6.87;;;1.40;;
78877;SDS011;68257;43.514;1.498;2024-03-08T06:10:54;7.18;;;1.13;;
78877;SDS011;68257;43.514;1.498;2024-03-08T06:13:20;6.33;;;1.53;;
78877;SDS011;68257;43.514;1.498;2024-03-08T06:15:46;7.25;;;1.20;;
78877;SDS011;68257;43.514;1.498;2024-03-08T06:18:11;5.60;;;0.90;;
78877;SDS011;68257;43.514;1.498;2024-03-08T06:20:37;5.17;;;1.20;;
78877;SDS011;68257;43.514;1.498;2024-03-08T06:23:02;7.50;;;1.10;;
78877;SDS011;68257;43.514;1.498;2024-03-08T06:25:27;5.60;;;0.90;;
78877;SDS011;68257;43.514;1.498;2024-03-08T06:27:53;6.97;;;1.10;;
78877;SDS011;68257;43.514;1.498;2024-03-08T06:30:18;4.80;;;0.90;;
78877;SDS011;68257;43.514;1.498;2024-03-08T06:32:45;8.07;;;1.20;;
78877;SDS011;68257;43.514;1.498;2024-03-08T06:35:10;5.43;;;1.10;;
78877;SDS011;68257;43.514;1.498;2024-03-08T06:37:36;7.70;;;1.20;;
78877;SDS011;68257;43.514;1.498;2024-03-08T06:40:02;5.40;;;1.10;;
78877;SDS011;68257;43.514;1.498;2024-03-08T06:42:32;5.03;;;1.00;;
78877;SDS011;68257;43.514;1.498;2024-03-08T06:45:01;6.07;;;1.13;;
78877;SDS011;68257;43.514;1.498;2024-03-08T06:47:30;6.72;;;1.38;;
78877;SDS011;68257;43.514;1.498;2024-03-08T06:49:56;5.03;;;0.88;;
78877;SDS011;68257;43.514;1.498;2024-03-08T06:52:21;6.67;;;1.10;;
78877;SDS011;68257;43.514;1.498;2024-03-08T06:54:47;7.00;;;1.10;;
78877;SDS011;68257;43.514;1.498;2024-03-08T06:57:13;7.03;;;1.52;;
78877;SDS011;68257;43.514;1.498;2024-03-08T06:59:39;6.40;;;1.20;;
78877;SDS011;68257;43.514;1.498;2024-03-08T07:02:04;4.87;;;2.47;;
78877;SDS011;68257;43.514;1.498;2024-03-08T07:04:33;6.28;;;1.33;;
78877;SDS011;68257;43.514;1.498;2024-03-08T07:07:03;7.15;;;1.50;;
78877;SDS011;68257;43.514;1.498;2024-03-08T07:09:37;7.43;;;1.02;;
78877;SDS011;68257;43.514;1.498;2024-03-08T07:12:03;5.43;;;0.80;;
78877;SDS011;68257;43.514;1.498;2024-03-08T07:14:29;2.53;;;0.90;;
78877;SDS011;68257;43.514;1.498;2024-03-08T07:16:56;6.83;;;1.20;;
78877;SDS011;68257;43.514;1.498;2024-03-08T07:19:21;6.57;;;1.58;;
78877;SDS011;68257;43.514;1.498;2024-03-08T07:21:47;6.30;;;1.50;;
78877;SDS011;68257;43.514;1.498;2024-03-08T07:24:12;4.10;;;0.90;;
78877;SDS011;68257;43.514;1.498;2024-03-08T07:26:57;6.72;;;0.98;;
78877;SDS011;68257;43.514;1.498;2024-03-08T07:29:23;5.15;;;0.90;;
78877;SDS011;68257;43.514;1.498;2024-03-08T07:31:48;5.80;;;0.80;;
78877;SDS011;68257;43.514;1.498;2024-03-08T07:34:27;6.28;;;1.20;;
78877;SDS011;68257;43.514;1.498;2024-03-08T07:36:52;4.87;;;0.97;;
78877;SDS011;68257;43.514;1.498;2024-03-08T07:39:18;5.20;;;0.90;;
78877;SDS011;68257;43.514;1.498;2024-03-08T07:41:44;5.22;;;1.08;;
78877;SDS011;68257;43.514;1.498;2024-03-08T07:44:09;6.23;;;0.70;;
78877;SDS011;68257;43.514;1.498;2024-03-08T07:46:35;6.70;;;1.00;;
78877;SDS011;68257;43.514;1.498;2024-03-08T07:49:01;2.58;;;0.80;;
78877;SDS011;68257;43.514;1.498;2024-03-08T07:51:28;2.87;;;0.67;;
78877;SDS011;68257;43.514;1.498;2024-03-08T07:53:53;7.20;;;0.90;;
78877;SDS011;68257;43.514;1.498;2024-03-08T07:56:19;8.77;;;1.20;;
78877;SDS011;68257;43.514;1.498;2024-03-08T07:58:46;4.38;;;0.80;;
78877;SDS011;68257;43.514;1.498;2024-03-08T08:01:18;8.45;;;0.82;;
78877;SDS011;68257;43.514;1.498;2024-03-08T08:03:44;3.97;;;0.83;;
78877;SDS011;68257;43.514;1.498;2024-03-08T08:06:10;5.20;;;1.00;;
78877;SDS011;68257;43.514;1.498;2024-03-08T08:08:41;4.28;;;1.00;;
78877;SDS011;68257;43.514;1.498;2024-03-08T08:11:10;3.85;;;0.95;;
78877;SDS011;68257;43.514;1.498;2024-03-08T08:13:40;6.10;;;1.00;;
78877;SDS011;68257;43.514;1.498;2024-03-08T08:16:07;3.87;;;0.87;;
78877;SDS011;68257;43.514;1.498;2024-03-08T08:18:32;4.53;;;1.00;;
78877;SDS011;68257;43.514;1.498;2024-03-08T08:20:58;4.37;;;0.93;;
78877;SDS011;68257;43.514;1.498;2024-03-08T08:23:25;3.85;;;0.70;;
78877;SDS011;68257;43.514;1.498;2024-03-08T08:25:51;6.70;;;1.08;;
78877;SDS011;68257;43.514;1.498;2024-03-08T08:28:16;6.20;;;0.97;;
78877;SDS011;68257;43.514;1.498;2024-03-08T08:30:45;6.50;;;1.10;;
78877;SDS011;68257;43.514;1.498;2024-03-08T08:33:11;7.73;;;1.00;;
78877;SDS011;68257;43.514;1.498;2024-03-08T08:35:37;15.77;;;1.23;;
78877;SDS011;68257;43.514;1.498;2024-03-08T08:38:03;4.30;;;0.87;;
78877;SDS011;68257;43.514;1.498;2024-03-08T08:40:29;4.63;;;0.93;;
78877;SDS011;68257;43.514;1.498;2024-03-08T08:42:57;7.65;;;1.10;;
78877;SDS011;68257;43.514;1.498;2024-03-08T08:45:23;6.17;;;2.00;;
78877;SDS011;68257;43.514;1.498;2024-03-08T08:47:48;18.92;;;1.17;;
78877;SDS011;68257;43.514;1.498;2024-03-08T08:50:14;20.13;;;1.25;;
78877;SDS011;68257;43.514;1.498;2024-03-08T08:52:41;35.10;;;1.70;;
78877;SDS011;68257;43.514;1.498;2024-03-08T08:55:08;11.63;;;1.10;;
78877;SDS011;68257;43.514;1.498;2024-03-08T08:57:34;3.00;;;0.77;;
78877;SDS011;68257;43.514;1.498;2024-03-08T09:00:00;5.30;;;1.20;;
78877;SDS011;68257;43.514;1.498;2024-03-08T09:02:26;4.35;;;1.20;;
78877;SDS011;68257;43.514;1.498;2024-03-08T09:04:51;4.90;;;1.50;;
78877;SDS011;68257;43.514;1.498;2024-03-08T09:07:17;6.20;;;1.60;;
78877;SDS011;68257;43.514;1.498;2024-03-08T09:09:46;7.43;;;1.40;;
78877;SDS011;68257;43.514;1.498;2024-03-08T09:12:12;9.35;;;2.30;;
78877;SDS011;68257;43.514;1.498;2024-03-08T09:14:39;9.35;;;2.13;;
78877;SDS011;68257;43.514;1.498;2024-03-08T09:17:05;12.52;;;2.28;;
78877;SDS011;68257;43.514;1.498;2024-03-08T09:19:33;7.28;;;2.65;;
78877;SDS011;68257;43.514;1.498;2024-03-08T09:21:59;9.00;;;2.37;;
78877;SDS011;68257;43.514;1.498;2024-03-08T09:24:24;7.03;;;2.13;;
78877;SDS011;68257;43.514;1.498;2024-03-08T09:26:49;10.00;;;2.10;;
78877;SDS011;68257;43.514;1.498;2024-03-08T09:29:15;6.13;;;2.37;;
78877;SDS011;68257;43.514;1.498;2024-03-08T09:31:41;10.07;;;3.10;;
78877;SDS011;68257;43.514;1.498;2024-03-08T09:34:06;8.10;;;2.87;;
78877;SDS011;68257;43.514;1.498;2024-03-08T09:36:33;6.95;;;2.53;;
78877;SDS011;68257;43.514;1.498;2024-03-08T09:38:59;9.77;;;2.65;;
78877;SDS011;68257;43.514;1.498;2024-03-08T09:41:25;9.23;;;3.37;;
78877;SDS011;68257;43.514;1.498;2024-03-08T09:43:51;9.35;;;3.00;;
78877;SDS011;68257;43.514;1.498;2024-03-08T09:46:17;6.87;;;3.10;;
78877;SDS011;68257;43.514;1.498;2024-03-08T09:48:44;8.73;;;3.33;;
78877;SDS011;68257;43.514;1.498;2024-03-08T09:51:11;10.02;;;3.58;;
78877;SDS011;68257;43.514;1.498;2024-03-08T09:53:40;9.82;;;3.60;;
78877;SDS011;68257;43.514;1.498;2024-03-08T09:56:07;8.33;;;3.30;;
78877;SDS011;68257;43.514;1.498;2024-03-08T09:58:33;11.13;;;4.13;;
78877;SDS011;68257;43.514;1.498;2024-03-08T10:00:58;10.23;;;3.83;;
78877;SDS011;68257;43.514;1.498;2024-03-08T10:03:26;9.63;;;3.57;;
78877;SDS011;68257;43.514;1.498;2024-03-08T10:05:52;10.32;;;3.58;;
78877;SDS011;68257;43.514;1.498;2024-03-08T10:08:21;7.63;;;3.88;;
78877;SDS011;68257;43.514;1.498;2024-03-08T10:10:47;16.30;;;5.50;;
78877;SDS011;68257;43.514;1.498;2024-03-08T10:13:12;14.97;;;6.63;;
78877;SDS011;68257;43.514;1.498;2024-03-08T10:15:41;13.18;;;5.05;;
78877;SDS011;68257;43.514;1.498;2024-03-08T10:18:07;7.00;;;3.70;;
78877;SDS011;68257;43.514;1.498;2024-03-08T10:20:33;7.30;;;3.50;;
78877;SDS011;68257;43.514;1.498;2024-03-08T10:22:59;8.40;;;2.63;;
78877;SDS011;68257;43.514;1.498;2024-03-08T10:25:25;5.00;;;2.05;;
78877;SDS011;68257;43.514;1.498;2024-03-08T10:27:51;5.13;;;1.40;;
78877;SDS011;68257;43.514;1.498;2024-03-08T10:30:16;4.47;;;1.33;;
78877;SDS011;68257;43.514;1.498;2024-03-08T10:32:46;7.10;;;2.10;;
78877;SDS011;68257;43.514;1.498;2024-03-08T10:35:12;5.47;;;1.73;;
78877;SDS011;68257;43.514;1.498;2024-03-08T10:37:47;6.80;;;2.50;;
78877;SDS011;68257;43.514;1.498;2024-03-08T10:40:28;5.07;;;2.20;;
78877;SDS011;68257;43.514;1.498;2024-03-08T10:42:55;5.30;;;2.10;;
78877;SDS011;68257;43.514;1.498;2024-03-08T10:50:35;6.20;;;2.55;;
78877;SDS011;68257;43.514;1.498;2024-03-08T10:53:00;4.83;;;2.37;;
78877;SDS011;68257;43.514;1.498;2024-03-08T10:55:28;4.22;;;1.75;;
78877;SDS011;68257;43.514;1.498;2024-03-08T10:57:53;5.13;;;2.67;;
78877;SDS011;68257;43.514;1.498;2024-03-08T11:00:19;4.28;;;1.90;;
78877;SDS011;68257;43.514;1.498;2024-03-08T11:02:52;5.35;;;1.73;;
78877;SDS011;68257;43.514;1.498;2024-03-08T11:08:17;3.42;;;1.60;;
78877;SDS011;68257;43.514;1.498;2024-03-08T11:11:01;3.85;;;1.40;;
78877;SDS011;68257;43.514;1.498;2024-03-08T11:13:36;4.13;;;1.60;;
78877;SDS011;68257;43.514;1.498;2024-03-08T11:16:06;4.70;;;1.52;;
78877;SDS011;68257;43.514;1.498;2024-03-08T11:18:34;4.30;;;2.30;;
78877;SDS011;68257;43.514;1.498;2024-03-08T11:21:04;3.22;;;1.50;;
78877;SDS011;68257;43.514;1.498;2024-03-08T11:23:36;3.05;;;1.90;;
78877;SDS011;68257;43.514;1.498;2024-03-08T11:26:01;3.00;;;1.93;;
78877;SDS011;68257;43.514;1.498;2024-03-08T11:28:30;3.28;;;2.10;;
78877;SDS011;68257;43.514;1.498;2024-03-08T11:33:26;3.65;;;2.55;;
78877;SDS011;68257;43.514;1.498;2024-03-08T11:35:57;6.88;;;5.40;;
78877;SDS011;68257;43.514;1.498;2024-03-08T11:38:42;6.18;;;5.20;;
78877;SDS011;68257;43.514;1.498;2024-03-08T11:41:09;7.07;;;6.20;;
78877;SDS011;68257;43.514;1.498;2024-03-08T11:43:39;4.05;;;3.60;;
78877;SDS011;68257;43.514;1.498;2024-03-08T11:46:13;3.83;;;2.90;;
78877;SDS011;68257;43.514;1.498;2024-03-08T11:48:39;3.78;;;2.70;;
78877;SDS011;68257;43.514;1.498;2024-03-08T11:51:09;5.25;;;4.25;;
78877;SDS011;68257;43.514;1.498;2024-03-08T11:53:36;4.20;;;2.97;;
78877;SDS011;68257;43.514;1.498;2024-03-08T11:56:09;4.93;;;2.80;;
78877;SDS011;68257;43.514;1.498;2024-03-08T11:58:36;4.20;;;2.85;;
78877;SDS011;68257;43.514;1.498;2024-03-08T12:01:05;3.75;;;2.85;;
78877;SDS011;68257;43.514;1.498;2024-03-08T12:03:42;4.37;;;3.10;;
78877;SDS011;68257;43.514;1.498;2024-03-08T12:06:08;4.00;;;3.33;;
78877;SDS011;68257;43.514;1.498;2024-03-08T12:08:35;3.38;;;2.83;;
78877;SDS011;68257;43.514;1.498;2024-03-08T12:11:00;3.75;;;3.03;;
78877;SDS011;68257;43.514;1.498;2024-03-08T12:13:29;3.43;;;2.87;;
78877;SDS011;68257;43.514;1.498;2024-03-08T12:15:59;4.03;;;2.85;;
78877;SDS011;68257;43.514;1.498;2024-03-08T12:18:25;4.67;;;3.30;;
78877;SDS011;68257;43.514;1.498;2024-03-08T12:20:51;3.28;;;2.90;;
78877;SDS011;68257;43.514;1.498;2024-03-08T12:23:17;4.93;;;3.90;;
78877;SDS011;68257;43.514;1.498;2024-03-08T12:25:43;9.30;;;4.47;;
78877;SDS011;68257;43.514;1.498;2024-03-08T12:28:12;6.45;;;4.78;;
78877;SDS011;68257;43.514;1.498;2024-03-08T12:30:50;4.90;;;4.40;;
78877;SDS011;68257;43.514;1.498;2024-03-08T12:33:18;4.03;;;2.90;;
78877;SDS011;68257;43.514;1.498;2024-03-08T12:35:53;3.30;;;3.00;;
78877;SDS011;68257;43.514;1.498;2024-03-08T12:38:20;4.53;;;2.88;;
78877;SDS011;68257;43.514;1.498;2024-03-08T12:40:50;5.47;;;3.40;;
78877;SDS011;68257;43.514;1.498;2024-03-08T12:43:15;3.40;;;3.10;;
78877;SDS011;68257;43.514;1.498;2024-03-08T12:45:41;6.47;;;3.20;;
78877;SDS011;68257;43.514;1.498;2024-03-08T12:48:12;4.07;;;3.10;;
78877;SDS011;68257;43.514;1.498;2024-03-08T12:50:40;4.80;;;4.32;;
78877;SDS011;68257;43.514;1.498;2024-03-08T12:53:06;3.40;;;3.10;;
78877;SDS011;68257;43.514;1.498;2024-03-08T12:55:31;3.33;;;3.03;;
78877;SDS011;68257;43.514;1.498;2024-03-08T12:57:58;5.88;;;3.80;;
78877;SDS011;68257;43.514;1.498;2024-03-08T13:00:26;3.75;;;3.08;;
78877;SDS011;68257;43.514;1.498;2024-03-08T13:02:53;7.18;;;3.40;;
78877;SDS011;68257;43.514;1.498;2024-03-08T13:05:19;7.83;;;3.70;;
78877;SDS011;68257;43.514;1.498;2024-03-08T13:07:45;4.25;;;3.10;;
78877;SDS011;68257;43.514;1.498;2024-03-08T13:10:11;4.57;;;3.50;;
78877;SDS011;68257;43.514;1.498;2024-03-08T13:12:39;3.50;;;3.20;;
78877;SDS011;68257;43.514;1.498;2024-03-08T13:15:08;3.60;;;3.00;;
78877;SDS011;68257;43.514;1.498;2024-03-08T13:17:36;3.80;;;3.40;;
78877;SDS011;68257;43.514;1.498;2024-03-08T13:20:05;5.25;;;3.30;;
78877;SDS011;68257;43.514;1.498;2024-03-08T13:22:32;6.28;;;3.47;;
78877;SDS011;68257;43.514;1.498;2024-03-08T13:24:58;4.13;;;3.30;;
78877;SDS011;68257;43.514;1.498;2024-03-08T13:27:26;3.47;;;3.10;;
78877;SDS011;68257;43.514;1.498;2024-03-08T13:29:52;3.95;;;2.80;;
78877;SDS011;68257;43.514;1.498;2024-03-08T13:32:17;3.63;;;3.00;;
78877;SDS011;68257;43.514;1.498;2024-03-08T13:34:45;3.60;;;3.30;;
78877;SDS011;68257;43.514;1.498;2024-03-08T13:37:12;3.45;;;3.15;;
78877;SDS011;68257;43.514;1.498;2024-03-08T13:39:41;2.73;;;2.30;;
78877;SDS011;68257;43.514;1.498;2024-03-08T13:42:09;7.03;;;4.30;;
78877;SDS011;68257;43.514;1.498;2024-03-08T13:44:38;3.00;;;2.45;;
78877;SDS011;68257;43.514;1.498;2024-03-08T13:47:05;3.03;;;2.30;;
78877;SDS011;68257;43.514;1.498;2024-03-08T13:49:32;2.60;;;1.77;;
78877;SDS011;68257;43.514;1.498;2024-03-08T13:51:58;2.90;;;1.80;;
78877;SDS011;68257;43.514;1.498;2024-03-08T13:54:26;2.70;;;1.60;;
78877;SDS011;68257;43.514;1.498;2024-03-08T13:56:52;4.35;;;1.77;;
78877;SDS011;68257;43.514;1.498;2024-03-08T13:59:19;6.38;;;1.85;;
78877;SDS011;68257;43.514;1.498;2024-03-08T14:01:47;4.47;;;2.70;;
78877;SDS011;68257;43.514;1.498;2024-03-08T14:04:14;3.47;;;1.83;;
78877;SDS011;68257;43.514;1.498;2024-03-08T14:06:42;4.72;;;1.70;;
78877;SDS011;68257;43.514;1.498;2024-03-08T14:09:10;3.65;;;1.55;;
78877;SDS011;68257;43.514;1.498;2024-03-08T14:11:41;3.08;;;1.50;;
78877;SDS011;68257;43.514;1.498;2024-03-08T14:14:07;9.07;;;8.27;;
78877;SDS011;68257;43.514;1.498;2024-03-08T14:16:34;7.20;;;4.25;;
78877;SDS011;68257;43.514;1.498;2024-03-08T14:19:02;21.95;;;12.52;;
78877;SDS011;68257;43.514;1.498;2024-03-08T14:21:30;46.67;;;27.15;;
78877;SDS011;68257;43.514;1.498;2024-03-08T14:23:58;27.13;;;15.73;;
78877;SDS011;68257;43.514;1.498;2024-03-08T14:26:24;25.92;;;15.38;;
78877;SDS011;68257;43.514;1.498;2024-03-08T14:28:49;7.63;;;3.97;;
78877;SDS011;68257;43.514;1.498;2024-03-08T14:31:19;4.85;;;2.83;;
78877;SDS011;68257;43.514;1.498;2024-03-08T14:33:50;11.07;;;6.57;;
78877;SDS011;68257;43.514;1.498;2024-03-08T14:36:16;3.88;;;2.00;;
78877;SDS011;68257;43.514;1.498;2024-03-08T14:38:42;4.68;;;2.08;;
78877;SDS011;68257;43.514;1.498;2024-03-08T14:41:08;17.27;;;8.60;;
78877;SDS011;68257;43.514;1.498;2024-03-08T14:43:33;22.85;;;12.23;;
78877;SDS011;68257;43.514;1.498;2024-03-08T14:45:59;14.30;;;7.73;;
78877;SDS011;68257;43.514;1.498;2024-03-08T14:48:24;6.30;;;4.10;;
78877;SDS011;68257;43.514;1.498;2024-03-08T14:50:50;5.20;;;3.80;;
78877;SDS011;68257;43.514;1.498;2024-03-08T14:53:15;5.43;;;3.67;;
78877;SDS011;68257;43.514;1.498;2024-03-08T14:55:42;6.90;;;5.90;;
78877;SDS011;68257;43.514;1.498;2024-03-08T14:58:07;4.78;;;4.30;;
78877;SDS011;68257;43.514;1.498;2024-03-08T15:00:34;4.63;;;3.70;;
78877;SDS011;68257;43.514;1.498;2024-03-08T15:03:00;6.10;;;5.00;;
78877;SDS011;68257;43.514;1.498;2024-03-08T15:05:27;4.43;;;4.00;;